createdAt,value
2022-08-26T00:01:19.207Z,20.01
2022-08-26T00:03:56.459Z,19.93
2022-08-26T00:06:23.837Z,19.85
2022-08-26T00:08:51.429Z,19.81
2022-08-26T00:11:26.714Z,19.82
2022-08-26T00:13:55.479Z,19.80
2022-08-26T00:16:29.537Z,19.73
2022-08-26T00:18:56.568Z,19.71
2022-08-26T00:21:23.452Z,19.71
2022-08-26T00:23:50.379Z,19.70
2022-08-26T00:26:17.769Z,19.65
2022-08-26T00:28:44.690Z,19.65
2022-08-26T00:31:11.629Z,19.60
2022-08-26T00:33:39.795Z,19.55
2022-08-26T00:36:08.641Z,19.55
2022-08-26T00:38:46.900Z,19.54
2022-08-26T00:41:13.911Z,19.49
2022-08-26T00:43:47.405Z,19.47
2022-08-26T00:46:23.692Z,19.44
2022-08-26T00:48:54.161Z,19.52
2022-08-26T00:51:24.853Z,19.42
2022-08-26T00:54:10.739Z,19.42
2022-08-26T00:56:51.202Z,19.40
2022-08-26T00:59:18.774Z,19.43
2022-08-26T01:01:46.225Z,19.54
2022-08-26T01:04:19.265Z,19.74
2022-08-26T01:06:49.672Z,19.91
2022-08-26T01:09:18.043Z,19.99
2022-08-26T01:11:45.355Z,20.05
2022-08-26T01:14:14.470Z,20.07
2022-08-26T01:16:42.387Z,20.06
2022-08-26T01:19:28.608Z,19.95
2022-08-26T01:22:17.554Z,19.80
2022-08-26T01:24:44.474Z,19.59
2022-08-26T01:27:15.845Z,19.38
2022-08-26T01:29:44.554Z,19.32
2022-08-26T01:32:16.293Z,19.27
2022-08-26T01:34:46.315Z,19.19
2022-08-26T01:37:18.384Z,19.13
2022-08-26T01:39:48.826Z,19.05
2022-08-26T01:42:18.214Z,19.03
2022-08-26T01:45:13.758Z,19.01
2022-08-26T01:47:42.987Z,18.99
2022-08-26T01:50:15.732Z,18.96
2022-08-26T01:52:57.609Z,18.90
2022-08-26T01:55:33.149Z,18.90
2022-08-26T01:58:06.995Z,18.92
2022-08-26T02:00:36.253Z,18.87
2022-08-26T02:03:06.604Z,18.82
2022-08-26T02:05:33.792Z,18.83
2022-08-26T02:08:03.201Z,18.80
2022-08-26T02:10:31.366Z,18.74
2022-08-26T02:12:58.209Z,18.72
2022-08-26T02:15:25.116Z,18.69
2022-08-26T02:17:52.669Z,18.69
2022-08-26T02:20:21.661Z,18.64
2022-08-26T02:22:48.502Z,18.61
2022-08-26T02:25:25.753Z,18.58
2022-08-26T02:27:53.246Z,18.56
2022-08-26T02:30:29.775Z,18.59
2022-08-26T02:33:02.365Z,18.55
2022-08-26T02:35:31.025Z,18.51
2022-08-26T02:37:59.549Z,18.49
2022-08-26T02:40:31.201Z,18.46
2022-08-26T02:42:58.751Z,18.42
2022-08-26T02:45:28.129Z,18.40
2022-08-26T02:47:55.606Z,18.37
2022-08-26T02:50:25.326Z,18.38
2022-08-26T02:52:52.819Z,18.35
2022-08-26T02:55:19.767Z,18.32
2022-08-26T02:57:47.223Z,18.32
2022-08-26T03:00:14.740Z,18.27
2022-08-26T03:02:41.639Z,18.26
2022-08-26T03:05:08.945Z,18.24
2022-08-26T03:07:36.428Z,18.22
2022-08-26T03:10:08.561Z,18.22
2022-08-26T03:12:36.508Z,18.24
2022-08-26T03:15:17.562Z,18.16
2022-08-26T03:17:47.801Z,18.15
2022-08-26T03:20:15.558Z,18.13
2022-08-26T03:22:45.004Z,18.14
2022-08-26T03:25:15.222Z,18.08
2022-08-26T03:27:43.114Z,18.06
2022-08-26T03:30:12.010Z,18.06
2022-08-26T03:32:38.972Z,18.06
2022-08-26T03:35:08.526Z,17.98
2022-08-26T03:37:35.486Z,17.97
2022-08-26T03:40:02.639Z,17.98
2022-08-26T03:42:29.580Z,17.99
2022-08-26T03:44:56.497Z,17.99
2022-08-26T03:47:23.372Z,17.96
2022-08-26T03:49:50.234Z,17.95
2022-08-26T03:52:19.056Z,17.91
2022-08-26T03:54:45.962Z,17.87
2022-08-26T03:57:14.084Z,17.84
2022-08-26T03:59:43.867Z,18.01
2022-08-26T04:02:11.696Z,18.29
2022-08-26T04:04:39.547Z,18.46
2022-08-26T04:07:07.175Z,18.50
2022-08-26T04:09:35.134Z,18.54
2022-08-26T04:12:02.749Z,18.50
2022-08-26T04:14:30.339Z,18.52
2022-08-26T04:16:59.320Z,18.49
2022-08-26T04:19:27.496Z,18.25
2022-08-26T04:21:54.680Z,18.23
2022-08-26T04:24:24.636Z,18.14
2022-08-26T04:26:51.848Z,18.16
2022-08-26T04:29:25.858Z,18.23
2022-08-26T04:31:55.310Z,18.18
2022-08-26T04:34:28.700Z,18.11
2022-08-26T04:36:56.931Z,18.06
2022-08-26T04:39:25.326Z,18.06
2022-08-26T04:41:55.163Z,18.06
2022-08-26T04:44:23.680Z,18.06
2022-08-26T04:46:50.866Z,18.04
2022-08-26T04:49:18.435Z,18.03
2022-08-26T04:51:45.240Z,18.05
2022-08-26T04:54:12.013Z,18.06
2022-08-26T04:56:43.067Z,18.10
2022-08-26T04:59:17.063Z,18.10
2022-08-26T05:01:47.158Z,18.13
2022-08-26T05:04:16.235Z,18.14
2022-08-26T05:06:45.941Z,18.16
2022-08-26T05:09:13.615Z,18.19
2022-08-26T05:11:42.641Z,18.21
2022-08-26T05:14:09.485Z,18.22
2022-08-26T05:16:36.515Z,18.27
2022-08-26T05:19:04.326Z,18.30
2022-08-26T05:21:31.877Z,18.34
2022-08-26T05:23:58.843Z,18.39
2022-08-26T05:26:28.487Z,18.44
2022-08-26T05:28:56.882Z,18.58
2022-08-26T05:31:28.981Z,18.59
2022-08-26T05:33:56.558Z,18.60
2022-08-26T05:36:27.007Z,18.65
2022-08-26T05:38:55.489Z,18.75
2022-08-26T05:41:34.459Z,18.90
2022-08-26T05:44:07.007Z,19.04
2022-08-26T05:46:34.747Z,19.11
2022-08-26T05:49:02.839Z,19.06
2022-08-26T05:51:31.029Z,19.13
2022-08-26T05:53:59.381Z,19.19
2022-08-26T05:56:26.248Z,19.37
2022-08-26T05:58:54.043Z,19.55
2022-08-26T06:01:24.301Z,19.70
2022-08-26T06:03:55.881Z,19.78
2022-08-26T06:06:27.533Z,19.82
2022-08-26T06:08:57.934Z,19.87
2022-08-26T06:11:27.172Z,19.97
2022-08-26T06:14:01.196Z,20.08
2022-08-26T06:16:31.732Z,20.11
2022-08-26T06:18:58.636Z,20.14
2022-08-26T06:21:30.593Z,20.08
2022-08-26T06:24:00.405Z,20.15
2022-08-26T06:26:28.046Z,20.23
2022-08-26T06:28:54.865Z,20.27
2022-08-26T06:31:23.286Z,20.29
2022-08-26T06:33:51.348Z,20.41
2022-08-26T06:36:28.927Z,20.45
2022-08-26T06:38:59.164Z,20.59
2022-08-26T06:41:26.196Z,20.67
2022-08-26T06:43:53.389Z,20.69
2022-08-26T06:46:21.763Z,20.76
2022-08-26T06:48:48.871Z,20.91
2022-08-26T06:51:23.586Z,21.03
2022-08-26T06:53:53.028Z,21.11
2022-08-26T06:56:24.219Z,21.16
2022-08-26T06:58:52.167Z,21.25
2022-08-26T07:01:22.221Z,21.38
2022-08-26T07:03:51.783Z,21.63
2022-08-26T07:06:21.475Z,21.83
2022-08-26T07:08:50.849Z,21.88
2022-08-26T07:11:18.320Z,22.01
2022-08-26T07:13:50.395Z,22.11
2022-08-26T07:16:18.868Z,22.22
2022-08-26T07:18:46.739Z,22.26
2022-08-26T07:21:15.364Z,22.36
2022-08-26T07:23:42.282Z,22.36
2022-08-26T07:26:12.473Z,22.39
2022-08-26T07:28:39.308Z,22.49
2022-08-26T07:31:10.391Z,22.54
2022-08-26T07:33:40.022Z,22.58
2022-08-26T07:36:09.339Z,22.67
2022-08-26T07:38:37.720Z,22.73
2022-08-26T07:41:04.948Z,22.83
2022-08-26T07:43:32.598Z,22.94
2022-08-26T07:45:59.431Z,23.21
2022-08-26T07:48:26.452Z,23.33
2022-08-26T07:50:53.572Z,23.41
2022-08-26T07:53:21.553Z,23.44
2022-08-26T07:55:51.471Z,23.40
2022-08-26T07:58:19.812Z,23.48
2022-08-26T08:00:46.892Z,23.55
2022-08-26T08:03:14.360Z,23.65
2022-08-26T08:05:41.628Z,23.60
2022-08-26T08:08:17.323Z,23.52
2022-08-26T08:10:56.337Z,23.53
2022-08-26T08:13:23.718Z,23.57
2022-08-26T08:15:51.330Z,23.69
2022-08-26T08:18:20.330Z,23.74
2022-08-26T08:20:59.035Z,23.78
2022-08-26T08:23:26.237Z,23.92
2022-08-26T08:26:04.938Z,24.20
2022-08-26T08:28:32.006Z,24.43
2022-08-26T08:30:59.261Z,24.47
2022-08-26T08:33:26.448Z,24.44
2022-08-26T08:35:53.221Z,24.44
2022-08-26T08:38:19.977Z,24.49
2022-08-26T08:40:46.759Z,24.56
2022-08-26T08:43:40.562Z,24.53
2022-08-26T08:46:13.461Z,24.79
2022-08-26T08:48:48.099Z,25.01
2022-08-26T08:51:30.254Z,24.91
2022-08-26T08:53:57.375Z,24.86
2022-08-26T08:56:42.065Z,24.86
2022-08-26T08:59:25.614Z,24.91
2022-08-26T09:01:53.945Z,25.00
2022-08-26T09:04:41.988Z,25.04
2022-08-26T09:07:16.028Z,25.02
2022-08-26T09:09:53.081Z,25.03
2022-08-26T09:12:29.466Z,25.06
2022-08-26T09:15:03.187Z,25.19
2022-08-26T09:18:11.911Z,25.28
2022-08-26T09:20:49.189Z,25.35
2022-08-26T09:23:18.228Z,25.36
2022-08-26T09:25:55.919Z,25.52
2022-08-26T09:28:24.980Z,25.54
2022-08-26T09:31:20.224Z,25.52
2022-08-26T09:33:47.344Z,25.70
2022-08-26T09:36:19.443Z,25.76
2022-08-26T09:38:46.527Z,25.96
2022-08-26T09:41:24.692Z,26.02
2022-08-26T09:44:09.674Z,26.11
2022-08-26T09:47:05.786Z,26.15
2022-08-26T09:49:36.857Z,26.20
2022-08-26T09:52:24.775Z,26.17
2022-08-26T09:55:02.394Z,26.23
2022-08-26T09:57:34.710Z,26.68
2022-08-26T10:00:22.338Z,26.99
2022-08-26T10:02:49.745Z,27.01
2022-08-26T10:05:28.956Z,27.04
2022-08-26T10:07:57.328Z,27.11
2022-08-26T10:10:35.376Z,26.97
2022-08-26T10:13:17.717Z,26.92
2022-08-26T10:16:17.338Z,27.04
2022-08-26T10:19:00.301Z,27.15
2022-08-26T10:21:35.777Z,27.25
2022-08-26T10:24:04.552Z,27.14
2022-08-26T10:26:50.321Z,26.97
2022-08-26T10:29:27.718Z,27.14
2022-08-26T10:31:54.616Z,27.29
2022-08-26T10:34:25.707Z,27.36
2022-08-26T10:37:16.255Z,27.32
2022-08-26T10:39:56.870Z,27.20
2022-08-26T10:42:42.827Z,27.26
2022-08-26T10:45:15.557Z,27.15
2022-08-26T10:48:05.252Z,27.09
2022-08-26T10:50:37.279Z,27.05
2022-08-26T10:53:12.912Z,27.04
2022-08-26T10:55:56.862Z,27.05
2022-08-26T10:58:54.842Z,26.98
2022-08-26T11:01:47.004Z,27.06
2022-08-26T11:04:34.972Z,27.11
2022-08-26T11:07:34.493Z,27.29
2022-08-26T11:10:21.563Z,27.23
2022-08-26T11:13:03.023Z,27.15
2022-08-26T11:15:29.677Z,27.20
2022-08-26T11:18:04.803Z,27.27
2022-08-26T11:20:45.359Z,27.25
2022-08-26T11:23:12.749Z,27.31
2022-08-26T11:25:58.387Z,27.61
2022-08-26T11:28:46.460Z,27.98
2022-08-26T11:31:26.094Z,28.07
2022-08-26T11:34:02.558Z,28.13
2022-08-26T11:36:47.674Z,28.05
2022-08-26T11:39:51.387Z,27.79
2022-08-26T11:42:39.403Z,27.84
2022-08-26T11:45:43.275Z,27.93
2022-08-26T11:48:29.261Z,27.78
2022-08-26T11:50:57.717Z,27.86
2022-08-26T11:53:25.294Z,28.17
2022-08-26T11:55:55.603Z,28.35
2022-08-26T11:58:26.269Z,28.49
2022-08-26T12:01:00.062Z,28.84
2022-08-26T12:03:48.698Z,28.94
2022-08-26T12:06:37.621Z,29.13
2022-08-26T12:09:24.140Z,29.16
2022-08-26T12:11:50.916Z,29.07
2022-08-26T12:14:25.160Z,28.77
2022-08-26T12:16:54.772Z,28.55
2022-08-26T12:19:32.894Z,28.60
2022-08-26T12:22:23.198Z,28.59
2022-08-26T12:25:00.159Z,28.68
2022-08-26T12:27:32.429Z,28.63
2022-08-26T12:30:12.346Z,28.53
2022-08-26T12:32:52.866Z,28.58
2022-08-26T12:35:26.192Z,28.60
2022-08-26T12:37:54.543Z,28.61
2022-08-26T12:40:31.077Z,28.53
2022-08-26T12:42:59.932Z,28.56
2022-08-26T12:45:33.372Z,28.57
2022-08-26T12:48:05.983Z,28.62
2022-08-26T12:50:35.989Z,28.64
2022-08-26T12:53:11.655Z,28.66
2022-08-26T12:56:09.196Z,28.69
2022-08-26T12:58:37.269Z,28.68
2022-08-26T13:01:04.164Z,28.77
2022-08-26T13:03:34.033Z,28.86
2022-08-26T13:06:15.593Z,28.83
2022-08-26T13:08:49.410Z,28.98
2022-08-26T13:11:29.853Z,29.10
2022-08-26T13:14:00.631Z,29.29
2022-08-26T13:16:29.531Z,29.64
2022-08-26T13:19:01.139Z,29.44
2022-08-26T13:21:30.206Z,29.33
2022-08-26T13:24:13.782Z,29.24
2022-08-26T13:26:41.954Z,29.22
2022-08-26T13:29:10.526Z,29.05
2022-08-26T13:31:40.303Z,29.13
2022-08-26T13:34:08.605Z,29.13
2022-08-26T13:36:35.584Z,29.07
2022-08-26T13:39:02.563Z,29.26
2022-08-26T13:41:29.906Z,29.60
2022-08-26T13:43:58.868Z,29.44
2022-08-26T13:46:27.565Z,29.42
2022-08-26T13:48:54.907Z,29.71
2022-08-26T13:51:22.308Z,30.27
2022-08-26T13:53:50.068Z,30.05
2022-08-26T13:56:17.849Z,30.01
2022-08-26T13:58:45.108Z,29.77
2022-08-26T14:01:13.541Z,29.61
2022-08-26T14:03:40.474Z,29.53
2022-08-26T14:06:07.640Z,29.59
2022-08-26T14:08:35.113Z,29.53
2022-08-26T14:11:02.052Z,29.71
2022-08-26T14:13:28.970Z,29.73
2022-08-26T14:15:56.160Z,29.70
2022-08-26T14:18:41.658Z,29.60
2022-08-26T14:21:12.833Z,29.58
2022-08-26T14:23:39.960Z,29.55
2022-08-26T14:26:06.924Z,29.85
2022-08-26T14:28:34.944Z,29.98
2022-08-26T14:31:03.059Z,29.97
2022-08-26T14:33:32.863Z,29.80
2022-08-26T14:36:00.776Z,29.64
2022-08-26T14:38:27.617Z,29.50
2022-08-26T14:40:54.356Z,29.55
2022-08-26T14:43:21.228Z,29.43
2022-08-26T14:45:47.961Z,29.23
2022-08-26T14:48:14.749Z,29.23
2022-08-26T14:50:41.538Z,29.24
2022-08-26T14:53:08.373Z,29.19
2022-08-26T14:55:39.180Z,29.17
2022-08-26T14:58:06.259Z,29.06
2022-08-26T15:00:33.422Z,29.02
2022-08-26T15:03:00.487Z,28.97
2022-08-26T15:05:27.539Z,29.03
2022-08-26T15:07:55.204Z,29.03
2022-08-26T15:10:23.488Z,29.02
2022-08-26T15:12:51.304Z,29.04
2022-08-26T15:15:18.913Z,28.97
2022-08-26T15:17:45.796Z,29.00
2022-08-26T15:20:15.586Z,29.05
2022-08-26T15:22:42.408Z,29.03
2022-08-26T15:25:10.459Z,29.01
2022-08-26T15:27:37.311Z,29.01
2022-08-26T15:30:07.145Z,28.95
2022-08-26T15:32:34.104Z,28.95
2022-08-26T15:35:02.039Z,28.87
2022-08-26T15:37:30.408Z,28.84
2022-08-26T15:39:57.318Z,28.83
2022-08-26T15:42:24.228Z,28.87
2022-08-26T15:44:51.004Z,28.73
2022-08-26T15:47:18.272Z,28.74
2022-08-26T15:49:45.086Z,28.71
2022-08-26T15:52:11.840Z,28.74
2022-08-26T15:54:38.687Z,28.69
2022-08-26T15:57:09.399Z,28.75
2022-08-26T15:59:37.762Z,28.75
2022-08-26T16:02:04.745Z,28.76
2022-08-26T16:04:31.625Z,28.83
2022-08-26T16:06:58.437Z,28.78
2022-08-26T16:09:25.296Z,28.68
2022-08-26T16:11:53.045Z,28.70
2022-08-26T16:14:20.547Z,28.62
2022-08-26T16:16:47.803Z,28.65
2022-08-26T16:19:15.202Z,28.66
2022-08-26T16:21:43.399Z,28.70
2022-08-26T16:24:10.861Z,28.68
2022-08-26T16:26:40.583Z,28.68
2022-08-26T16:29:11.137Z,28.68
2022-08-26T16:31:38.519Z,28.62
2022-08-26T16:34:06.882Z,28.62
2022-08-26T16:36:37.911Z,28.69
2022-08-26T16:39:08.683Z,28.71
2022-08-26T16:41:36.177Z,28.65
2022-08-26T16:44:03.422Z,28.67
2022-08-26T16:46:30.274Z,28.63
2022-08-26T16:48:58.565Z,28.68
2022-08-26T16:51:27.813Z,28.52
2022-08-26T16:53:56.046Z,28.49
2022-08-26T16:56:30.614Z,28.54
2022-08-26T16:59:03.463Z,28.46
2022-08-26T17:01:30.447Z,28.54
2022-08-26T17:03:57.251Z,28.45
2022-08-26T17:06:24.173Z,28.44
2022-08-26T17:08:50.965Z,28.40
2022-08-26T17:11:17.987Z,28.38
2022-08-26T17:13:44.868Z,28.32
2022-08-26T17:16:12.871Z,28.29
2022-08-26T17:18:39.740Z,28.27
2022-08-26T17:21:09.579Z,28.21
2022-08-26T17:23:38.650Z,28.23
2022-08-26T17:26:05.670Z,28.13
2022-08-26T17:28:32.689Z,28.16
2022-08-26T17:30:59.836Z,28.02
2022-08-26T17:33:27.691Z,28.00
2022-08-26T17:35:55.637Z,27.98
2022-08-26T17:38:22.949Z,27.95
2022-08-26T17:40:50.443Z,28.09
2022-08-26T17:43:18.373Z,28.28
2022-08-26T17:45:45.306Z,28.34
2022-08-26T17:48:12.883Z,28.38
2022-08-26T17:50:41.445Z,28.39
2022-08-26T17:53:18.461Z,28.35
2022-08-26T17:55:47.258Z,28.31
2022-08-26T17:58:15.474Z,28.26
2022-08-26T18:00:49.989Z,28.18
2022-08-26T18:03:17.460Z,28.09
2022-08-26T18:05:48.464Z,28.04
2022-08-26T18:08:15.369Z,28.00
2022-08-26T18:10:43.480Z,28.00
2022-08-26T18:13:10.812Z,28.02
2022-08-26T18:15:43.038Z,27.90
2022-08-26T18:18:10.040Z,27.74
2022-08-26T18:20:39.032Z,27.56
2022-08-26T18:23:06.140Z,27.53
2022-08-26T18:25:33.023Z,27.59
2022-08-26T18:28:00.589Z,27.56
2022-08-26T18:30:27.594Z,27.48
2022-08-26T18:32:54.445Z,27.48
2022-08-26T18:35:21.268Z,27.32
2022-08-26T18:37:48.557Z,27.12
2022-08-26T18:40:15.672Z,27.00
2022-08-26T18:42:42.546Z,26.93
2022-08-26T18:45:10.389Z,26.93
2022-08-26T18:47:43.406Z,26.96
2022-08-26T18:50:10.859Z,27.11
2022-08-26T18:52:38.753Z,26.97
2022-08-26T18:55:06.409Z,26.97
2022-08-26T18:57:33.390Z,27.15
2022-08-26T19:00:00.221Z,27.21
2022-08-26T19:02:27.795Z,27.21
2022-08-26T19:04:57.500Z,27.24
2022-08-26T19:07:24.400Z,26.99
2022-08-26T19:09:53.842Z,26.67
2022-08-26T19:12:21.132Z,26.48
2022-08-26T19:14:48.220Z,26.28
2022-08-26T19:17:15.643Z,26.19
2022-08-26T19:19:42.740Z,26.08
2022-08-26T19:22:13.213Z,26.07
2022-08-26T19:24:40.347Z,26.08
2022-08-26T19:27:09.747Z,26.12
2022-08-26T19:29:39.795Z,26.16
2022-08-26T19:32:06.974Z,26.06
2022-08-26T19:34:34.319Z,25.96
2022-08-26T19:37:01.238Z,25.93
2022-08-26T19:39:28.388Z,25.92
2022-08-26T19:41:55.667Z,25.92
2022-08-26T19:44:23.608Z,26.02
2022-08-26T19:46:50.737Z,26.14
2022-08-26T19:49:17.849Z,26.12
2022-08-26T19:51:45.073Z,26.13
2022-08-26T19:54:12.252Z,26.11
2022-08-26T19:56:39.332Z,26.11
2022-08-26T19:59:06.631Z,26.10
2022-08-26T20:01:33.486Z,26.12
2022-08-26T20:04:00.637Z,26.14
2022-08-26T20:06:27.926Z,26.15
2022-08-26T20:08:56.177Z,26.13
2022-08-26T20:11:24.226Z,26.11
2022-08-26T20:13:51.374Z,26.03
2022-08-26T20:16:18.813Z,25.97
2022-08-26T20:18:46.469Z,25.77
2022-08-26T20:21:14.415Z,25.67
2022-08-26T20:23:41.618Z,25.62
2022-08-26T20:26:08.868Z,25.52
2022-08-26T20:28:35.862Z,25.42
2022-08-26T20:31:03.630Z,25.39
2022-08-26T20:33:31.750Z,25.37
2022-08-26T20:36:14.470Z,25.37
2022-08-26T20:38:41.872Z,25.30
2022-08-26T20:41:09.249Z,25.22
2022-08-26T20:43:36.175Z,25.20
2022-08-26T20:46:03.287Z,25.02
2022-08-26T20:48:35.300Z,24.91
2022-08-26T20:51:02.388Z,24.94
2022-08-26T20:53:29.836Z,25.04
2022-08-26T20:56:01.882Z,25.20
2022-08-26T20:58:28.994Z,25.24
2022-08-26T21:00:56.440Z,25.22
2022-08-26T21:03:24.145Z,25.22
2022-08-26T21:05:50.944Z,25.24
2022-08-26T21:08:17.834Z,25.08
2022-08-26T21:10:44.719Z,24.94
2022-08-26T21:13:12.859Z,24.60
2022-08-26T21:15:39.974Z,24.61
2022-08-26T21:18:06.892Z,24.63
2022-08-26T21:20:34.413Z,24.52
2022-08-26T21:23:01.484Z,24.48
2022-08-26T21:25:28.415Z,24.52
2022-08-26T21:27:55.304Z,24.39
2022-08-26T21:30:22.751Z,24.44
2022-08-26T21:32:49.864Z,24.64
2022-08-26T21:35:16.875Z,24.76
2022-08-26T21:37:43.774Z,24.77
2022-08-26T21:40:11.309Z,24.71
2022-08-26T21:42:38.253Z,24.64
2022-08-26T21:45:06.146Z,24.55
2022-08-26T21:47:33.116Z,24.44
2022-08-26T21:49:59.975Z,24.37
2022-08-26T21:52:26.890Z,24.35
2022-08-26T21:55:01.650Z,24.31
2022-08-26T21:57:29.265Z,24.27
2022-08-26T21:59:56.310Z,24.25
2022-08-26T22:02:23.745Z,24.18
2022-08-26T22:04:50.920Z,24.16
2022-08-26T22:07:18.762Z,24.08
2022-08-26T22:09:46.044Z,24.00
2022-08-26T22:12:13.506Z,23.97
2022-08-26T22:14:40.364Z,23.89
2022-08-26T22:17:07.307Z,23.84
2022-08-26T22:19:34.284Z,23.84
2022-08-26T22:22:12.926Z,23.84
2022-08-26T22:24:39.712Z,23.81
2022-08-26T22:27:06.911Z,23.71
2022-08-26T22:29:34.319Z,23.61
2022-08-26T22:32:01.783Z,23.50
2022-08-26T22:34:28.815Z,23.42
2022-08-26T22:36:56.018Z,23.33
2022-08-26T22:39:25.132Z,23.30
2022-08-26T22:41:53.850Z,23.28
2022-08-26T22:44:21.077Z,23.28
2022-08-26T22:46:49.730Z,23.29
2022-08-26T22:49:16.882Z,23.29
2022-08-26T22:51:44.700Z,23.32
2022-08-26T22:54:11.850Z,23.31
2022-08-26T22:56:39.666Z,23.24
2022-08-26T22:59:07.031Z,23.16
2022-08-26T23:01:35.855Z,23.18
2022-08-26T23:04:03.424Z,23.18
2022-08-26T23:06:30.310Z,23.20
2022-08-26T23:08:57.144Z,23.22
2022-08-26T23:11:24.054Z,23.23
2022-08-26T23:13:50.956Z,23.05
2022-08-26T23:16:17.901Z,22.94
2022-08-26T23:18:44.778Z,22.90
2022-08-26T23:21:11.631Z,22.87
2022-08-26T23:23:38.592Z,22.87
2022-08-26T23:26:07.382Z,22.87
2022-08-26T23:28:36.169Z,22.83
2022-08-26T23:31:03.141Z,22.79
2022-08-26T23:33:30.022Z,22.80
2022-08-26T23:35:56.902Z,22.74
2022-08-26T23:38:24.131Z,22.76
2022-08-26T23:40:50.971Z,22.74
2022-08-26T23:43:17.811Z,22.70
2022-08-26T23:45:44.692Z,22.63
2022-08-26T23:48:11.685Z,22.55
2022-08-26T23:50:38.585Z,22.53
2022-08-26T23:53:05.453Z,22.56
2022-08-26T23:55:39.371Z,22.61
2022-08-26T23:58:06.938Z,22.61
